sensor_id;sensor_type;location;lat;lon;timestamp;P1;durP1;ratioP1;P2;durP2;ratioP2
12593;SDS011;6362;50.208;9.182;2023-03-07T00:00:45;28.95;;;14.32;;
12593;SDS011;6362;50.208;9.182;2023-03-07T00:03:11;27.27;;;13.75;;
12593;SDS011;6362;50.208;9.182;2023-03-07T00:05:40;26.48;;;12.95;;
12593;SDS011;6362;50.208;9.182;2023-03-07T00:08:06;26.20;;;14.23;;
12593;SDS011;6362;50.208;9.182;2023-03-07T00:10:32;27.85;;;14.77;;
12593;SDS011;6362;50.208;9.182;2023-03-07T00:12:57;23.75;;;13.88;;
12593;SDS011;6362;50.208;9.182;2023-03-07T00:15:22;27.38;;;13.75;;
12593;SDS011;6362;50.208;9.182;2023-03-07T00:17:48;26.30;;;13.48;;
12593;SDS011;6362;50.208;9.182;2023-03-07T00:20:14;25.52;;;14.18;;
12593;SDS011;6362;50.208;9.182;2023-03-07T00:22:40;27.65;;;14.40;;
12593;SDS011;6362;50.208;9.182;2023-03-07T00:25:06;29.70;;;15.07;;
12593;SDS011;6362;50.208;9.182;2023-03-07T00:27:32;29.80;;;13.85;;
12593;SDS011;6362;50.208;9.182;2023-03-07T00:29:58;28.25;;;14.15;;
12593;SDS011;6362;50.208;9.182;2023-03-07T00:32:24;25.35;;;14.13;;
12593;SDS011;6362;50.208;9.182;2023-03-07T00:34:49;28.80;;;14.93;;
12593;SDS011;6362;50.208;9.182;2023-03-07T00:37:15;28.73;;;13.50;;
12593;SDS011;6362;50.208;9.182;2023-03-07T00:39:41;29.33;;;15.35;;
12593;SDS011;6362;50.208;9.182;2023-03-07T00:42:07;27.00;;;13.70;;
12593;SDS011;6362;50.208;9.182;2023-03-07T00:44:32;28.58;;;15.15;;
12593;SDS011;6362;50.208;9.182;2023-03-07T00:46:58;28.90;;;16.10;;
12593;SDS011;6362;50.208;9.182;2023-03-07T00:49:24;27.10;;;14.82;;
12593;SDS011;6362;50.208;9.182;2023-03-07T00:51:50;34.38;;;17.33;;
12593;SDS011;6362;50.208;9.182;2023-03-07T00:54:17;33.45;;;15.90;;
12593;SDS011;6362;50.208;9.182;2023-03-07T00:56:43;26.90;;;14.60;;
12593;SDS011;6362;50.208;9.182;2023-03-07T00:59:08;27.88;;;15.18;;
12593;SDS011;6362;50.208;9.182;2023-03-07T01:01:34;27.55;;;14.40;;
12593;SDS011;6362;50.208;9.182;2023-03-07T01:04:00;32.80;;;16.33;;
12593;SDS011;6362;50.208;9.182;2023-03-07T01:06:26;31.38;;;15.88;;
12593;SDS011;6362;50.208;9.182;2023-03-07T01:08:59;31.65;;;15.68;;
12593;SDS011;6362;50.208;9.182;2023-03-07T01:11:28;29.67;;;15.20;;
12593;SDS011;6362;50.208;9.182;2023-03-07T01:13:55;25.50;;;14.60;;
12593;SDS011;6362;50.208;9.182;2023-03-07T01:16:23;32.20;;;16.27;;
12593;SDS011;6362;50.208;9.182;2023-03-07T01:18:54;32.15;;;15.40;;
12593;SDS011;6362;50.208;9.182;2023-03-07T01:21:28;28.40;;;15.25;;
12593;SDS011;6362;50.208;9.182;2023-03-07T01:23:55;32.30;;;16.95;;
12593;SDS011;6362;50.208;9.182;2023-03-07T01:26:22;33.50;;;16.67;;
12593;SDS011;6362;50.208;9.182;2023-03-07T01:28:53;32.03;;;15.93;;
12593;SDS011;6362;50.208;9.182;2023-03-07T01:31:21;37.38;;;17.30;;
12593;SDS011;6362;50.208;9.182;2023-03-07T01:33:48;30.85;;;15.57;;
12593;SDS011;6362;50.208;9.182;2023-03-07T01:36:18;30.40;;;15.77;;
12593;SDS011;6362;50.208;9.182;2023-03-07T01:38:59;35.28;;;16.50;;
12593;SDS011;6362;50.208;9.182;2023-03-07T01:41:28;33.90;;;16.70;;
12593;SDS011;6362;50.208;9.182;2023-03-07T01:43:56;29.95;;;15.73;;
12593;SDS011;6362;50.208;9.182;2023-03-07T01:48:59;34.50;;;17.20;;
12593;SDS011;6362;50.208;9.182;2023-03-07T01:51:29;33.05;;;16.98;;
12593;SDS011;6362;50.208;9.182;2023-03-07T01:53:56;36.88;;;18.00;;
12593;SDS011;6362;50.208;9.182;2023-03-07T01:56:23;35.85;;;17.95;;
12593;SDS011;6362;50.208;9.182;2023-03-07T01:58:49;33.35;;;17.25;;
12593;SDS011;6362;50.208;9.182;2023-03-07T02:01:17;35.53;;;17.35;;
12593;SDS011;6362;50.208;9.182;2023-03-07T02:06:09;34.55;;;18.30;;
12593;SDS011;6362;50.208;9.182;2023-03-07T02:08:35;31.70;;;16.38;;
12593;SDS011;6362;50.208;9.182;2023-03-07T02:11:03;29.77;;;15.88;;
12593;SDS011;6362;50.208;9.182;2023-03-07T02:13:29;37.38;;;17.42;;
12593;SDS011;6362;50.208;9.182;2023-03-07T02:15:54;35.65;;;17.02;;
12593;SDS011;6362;50.208;9.182;2023-03-07T02:18:23;34.00;;;17.73;;
12593;SDS011;6362;50.208;9.182;2023-03-07T02:20:59;34.58;;;16.95;;
12593;SDS011;6362;50.208;9.182;2023-03-07T02:28:54;30.83;;;14.45;;
12593;SDS011;6362;50.208;9.182;2023-03-07T02:31:21;32.00;;;15.43;;
12593;SDS011;6362;50.208;9.182;2023-03-07T02:33:47;32.67;;;16.25;;
12593;SDS011;6362;50.208;9.182;2023-03-07T02:36:14;32.40;;;16.40;;
12593;SDS011;6362;50.208;9.182;2023-03-07T02:38:43;33.75;;;17.13;;
12593;SDS011;6362;50.208;9.182;2023-03-07T02:41:12;35.15;;;17.58;;
12593;SDS011;6362;50.208;9.182;2023-03-07T02:43:39;34.05;;;18.05;;
12593;SDS011;6362;50.208;9.182;2023-03-07T02:46:05;35.85;;;17.35;;
12593;SDS011;6362;50.208;9.182;2023-03-07T02:48:30;35.35;;;18.02;;
12593;SDS011;6362;50.208;9.182;2023-03-07T02:50:56;31.13;;;16.45;;
12593;SDS011;6362;50.208;9.182;2023-03-07T02:53:21;34.13;;;16.45;;
12593;SDS011;6362;50.208;9.182;2023-03-07T02:55:47;34.03;;;16.10;;
12593;SDS011;6362;50.208;9.182;2023-03-07T02:58:13;36.05;;;17.17;;
12593;SDS011;6362;50.208;9.182;2023-03-07T03:00:38;30.83;;;16.90;;
12593;SDS011;6362;50.208;9.182;2023-03-07T03:03:04;32.97;;;18.20;;
12593;SDS011;6362;50.208;9.182;2023-03-07T03:05:29;31.65;;;16.38;;
12593;SDS011;6362;50.208;9.182;2023-03-07T03:07:55;34.20;;;16.73;;
12593;SDS011;6362;50.208;9.182;2023-03-07T03:10:20;39.65;;;18.33;;
12593;SDS011;6362;50.208;9.182;2023-03-07T03:12:46;32.75;;;16.58;;
12593;SDS011;6362;50.208;9.182;2023-03-07T03:15:11;31.33;;;15.57;;
12593;SDS011;6362;50.208;9.182;2023-03-07T03:17:37;31.27;;;16.58;;
12593;SDS011;6362;50.208;9.182;2023-03-07T03:20:03;31.38;;;16.92;;
12593;SDS011;6362;50.208;9.182;2023-03-07T03:22:37;30.17;;;16.45;;
12593;SDS011;6362;50.208;9.182;2023-03-07T03:25:04;32.97;;;16.63;;
12593;SDS011;6362;50.208;9.182;2023-03-07T03:27:32;31.67;;;15.70;;
12593;SDS011;6362;50.208;9.182;2023-03-07T03:29:58;33.22;;;16.58;;
12593;SDS011;6362;50.208;9.182;2023-03-07T03:32:23;32.05;;;16.95;;
12593;SDS011;6362;50.208;9.182;2023-03-07T03:34:48;31.42;;;16.70;;
12593;SDS011;6362;50.208;9.182;2023-03-07T03:37:14;33.13;;;16.98;;
12593;SDS011;6362;50.208;9.182;2023-03-07T03:39:39;28.75;;;15.82;;
12593;SDS011;6362;50.208;9.182;2023-03-07T03:42:05;29.20;;;15.32;;
12593;SDS011;6362;50.208;9.182;2023-03-07T03:44:30;33.15;;;17.02;;
12593;SDS011;6362;50.208;9.182;2023-03-07T03:46:56;31.15;;;15.57;;
12593;SDS011;6362;50.208;9.182;2023-03-07T03:49:21;29.38;;;15.45;;
12593;SDS011;6362;50.208;9.182;2023-03-07T03:51:47;31.27;;;17.40;;
12593;SDS011;6362;50.208;9.182;2023-03-07T03:54:12;34.50;;;17.05;;
12593;SDS011;6362;50.208;9.182;2023-03-07T03:56:37;28.95;;;15.43;;
12593;SDS011;6362;50.208;9.182;2023-03-07T03:59:03;28.17;;;15.10;;
12593;SDS011;6362;50.208;9.182;2023-03-07T04:01:28;28.23;;;15.50;;
12593;SDS011;6362;50.208;9.182;2023-03-07T04:03:54;30.35;;;15.18;;
12593;SDS011;6362;50.208;9.182;2023-03-07T04:06:22;27.77;;;15.32;;
12593;SDS011;6362;50.208;9.182;2023-03-07T04:08:50;30.50;;;15.90;;
12593;SDS011;6362;50.208;9.182;2023-03-07T04:11:16;26.63;;;14.98;;
12593;SDS011;6362;50.208;9.182;2023-03-07T04:13:42;33.70;;;15.73;;
12593;SDS011;6362;50.208;9.182;2023-03-07T04:16:07;31.33;;;14.57;;
12593;SDS011;6362;50.208;9.182;2023-03-07T04:18:33;26.65;;;13.25;;
12593;SDS011;6362;50.208;9.182;2023-03-07T04:20:59;25.83;;;14.18;;
12593;SDS011;6362;50.208;9.182;2023-03-07T04:23:26;27.58;;;15.05;;
12593;SDS011;6362;50.208;9.182;2023-03-07T04:25:56;25.48;;;13.55;;
12593;SDS011;6362;50.208;9.182;2023-03-07T04:28:24;25.88;;;14.27;;
12593;SDS011;6362;50.208;9.182;2023-03-07T04:30:51;28.55;;;13.75;;
12593;SDS011;6362;50.208;9.182;2023-03-07T04:33:18;27.65;;;14.43;;
12593;SDS011;6362;50.208;9.182;2023-03-07T04:35:44;27.92;;;15.25;;
12593;SDS011;6362;50.208;9.182;2023-03-07T04:38:15;25.60;;;13.32;;
12593;SDS011;6362;50.208;9.182;2023-03-07T04:40:41;24.95;;;13.57;;
12593;SDS011;6362;50.208;9.182;2023-03-07T04:43:06;27.98;;;14.40;;
12593;SDS011;6362;50.208;9.182;2023-03-07T04:45:33;22.67;;;13.10;;
12593;SDS011;6362;50.208;9.182;2023-03-07T04:48:01;25.67;;;13.40;;
12593;SDS011;6362;50.208;9.182;2023-03-07T04:50:27;25.85;;;14.25;;
12593;SDS011;6362;50.208;9.182;2023-03-07T04:52:52;27.13;;;14.77;;
12593;SDS011;6362;50.208;9.182;2023-03-07T04:55:17;23.58;;;13.23;;
12593;SDS011;6362;50.208;9.182;2023-03-07T04:57:43;27.00;;;14.38;;
12593;SDS011;6362;50.208;9.182;2023-03-07T05:00:08;23.15;;;13.30;;
12593;SDS011;6362;50.208;9.182;2023-03-07T05:02:35;19.45;;;11.93;;
12593;SDS011;6362;50.208;9.182;2023-03-07T05:05:01;25.75;;;14.15;;
12593;SDS011;6362;50.208;9.182;2023-03-07T05:07:27;23.80;;;13.20;;
12593;SDS011;6362;50.208;9.182;2023-03-07T05:09:54;22.55;;;13.02;;
12593;SDS011;6362;50.208;9.182;2023-03-07T05:12:19;25.60;;;13.63;;
12593;SDS011;6362;50.208;9.182;2023-03-07T05:14:45;23.70;;;12.52;;
12593;SDS011;6362;50.208;9.182;2023-03-07T05:17:10;24.50;;;13.07;;
12593;SDS011;6362;50.208;9.182;2023-03-07T05:19:36;31.73;;;14.60;;
12593;SDS011;6362;50.208;9.182;2023-03-07T05:22:01;24.95;;;13.60;;
12593;SDS011;6362;50.208;9.182;2023-03-07T05:24:27;24.55;;;13.45;;
12593;SDS011;6362;50.208;9.182;2023-03-07T05:26:52;26.23;;;14.45;;
12593;SDS011;6362;50.208;9.182;2023-03-07T05:29:18;27.35;;;13.88;;
12593;SDS011;6362;50.208;9.182;2023-03-07T05:31:43;22.23;;;14.15;;
12593;SDS011;6362;50.208;9.182;2023-03-07T05:34:09;21.27;;;12.40;;
12593;SDS011;6362;50.208;9.182;2023-03-07T05:36:37;24.65;;;13.48;;
12593;SDS011;6362;50.208;9.182;2023-03-07T05:39:03;22.70;;;12.77;;
12593;SDS011;6362;50.208;9.182;2023-03-07T05:41:29;25.55;;;14.45;;
12593;SDS011;6362;50.208;9.182;2023-03-07T05:43:54;20.88;;;11.90;;
12593;SDS011;6362;50.208;9.182;2023-03-07T05:46:20;25.70;;;14.23;;
12593;SDS011;6362;50.208;9.182;2023-03-07T05:48:45;22.85;;;12.90;;
12593;SDS011;6362;50.208;9.182;2023-03-07T05:51:11;23.35;;;14.05;;
12593;SDS011;6362;50.208;9.182;2023-03-07T05:53:36;23.63;;;13.55;;
12593;SDS011;6362;50.208;9.182;2023-03-07T05:56:02;21.83;;;12.80;;
12593;SDS011;6362;50.208;9.182;2023-03-07T05:58:28;25.73;;;13.80;;
12593;SDS011;6362;50.208;9.182;2023-03-07T06:00:53;25.88;;;14.85;;
12593;SDS011;6362;50.208;9.182;2023-03-07T06:03:18;21.73;;;13.02;;
12593;SDS011;6362;50.208;9.182;2023-03-07T06:05:47;24.67;;;13.60;;
12593;SDS011;6362;50.208;9.182;2023-03-07T06:08:13;25.02;;;14.35;;
12593;SDS011;6362;50.208;9.182;2023-03-07T06:10:39;21.63;;;13.15;;
12593;SDS011;6362;50.208;9.182;2023-03-07T06:13:04;25.30;;;14.13;;
12593;SDS011;6362;50.208;9.182;2023-03-07T06:15:29;22.80;;;13.23;;
12593;SDS011;6362;50.208;9.182;2023-03-07T06:17:55;24.90;;;14.38;;
12593;SDS011;6362;50.208;9.182;2023-03-07T06:20:21;24.08;;;13.68;;
12593;SDS011;6362;50.208;9.182;2023-03-07T06:22:46;21.17;;;12.13;;
12593;SDS011;6362;50.208;9.182;2023-03-07T06:25:13;21.00;;;12.15;;
12593;SDS011;6362;50.208;9.182;2023-03-07T06:27:40;23.23;;;12.88;;
12593;SDS011;6362;50.208;9.182;2023-03-07T06:30:06;22.40;;;13.70;;
12593;SDS011;6362;50.208;9.182;2023-03-07T06:32:34;25.52;;;13.80;;
12593;SDS011;6362;50.208;9.182;2023-03-07T06:34:59;24.45;;;13.93;;
12593;SDS011;6362;50.208;9.182;2023-03-07T06:37:25;22.35;;;13.05;;
12593;SDS011;6362;50.208;9.182;2023-03-07T06:39:52;24.65;;;13.65;;
12593;SDS011;6362;50.208;9.182;2023-03-07T06:42:18;23.85;;;13.27;;
12593;SDS011;6362;50.208;9.182;2023-03-07T06:44:43;23.10;;;13.57;;
12593;SDS011;6362;50.208;9.182;2023-03-07T06:47:08;23.15;;;13.30;;
12593;SDS011;6362;50.208;9.182;2023-03-07T06:49:34;21.75;;;12.70;;
12593;SDS011;6362;50.208;9.182;2023-03-07T06:51:59;22.38;;;13.23;;
12593;SDS011;6362;50.208;9.182;2023-03-07T06:54:25;25.75;;;13.93;;
12593;SDS011;6362;50.208;9.182;2023-03-07T06:56:51;22.58;;;13.20;;
12593;SDS011;6362;50.208;9.182;2023-03-07T06:59:16;21.30;;;11.93;;
12593;SDS011;6362;50.208;9.182;2023-03-07T07:01:43;25.52;;;12.90;;
12593;SDS011;6362;50.208;9.182;2023-03-07T07:04:09;23.13;;;13.38;;
12593;SDS011;6362;50.208;9.182;2023-03-07T07:06:35;23.70;;;13.38;;
12593;SDS011;6362;50.208;9.182;2023-03-07T07:09:01;24.00;;;13.13;;
12593;SDS011;6362;50.208;9.182;2023-03-07T07:11:28;22.95;;;13.73;;
12593;SDS011;6362;50.208;9.182;2023-03-07T07:13:53;25.02;;;13.93;;
12593;SDS011;6362;50.208;9.182;2023-03-07T07:16:19;22.42;;;12.90;;
12593;SDS011;6362;50.208;9.182;2023-03-07T07:18:45;23.13;;;12.13;;
12593;SDS011;6362;50.208;9.182;2023-03-07T07:21:10;21.05;;;12.70;;
12593;SDS011;6362;50.208;9.182;2023-03-07T07:23:36;22.95;;;12.93;;
12593;SDS011;6362;50.208;9.182;2023-03-07T07:26:04;21.02;;;12.48;;
12593;SDS011;6362;50.208;9.182;2023-03-07T07:28:30;21.67;;;13.15;;
12593;SDS011;6362;50.208;9.182;2023-03-07T07:30:55;27.75;;;12.82;;
12593;SDS011;6362;50.208;9.182;2023-03-07T07:33:21;21.15;;;11.90;;
12593;SDS011;6362;50.208;9.182;2023-03-07T07:35:46;20.63;;;12.32;;
12593;SDS011;6362;50.208;9.182;2023-03-07T07:38:12;26.73;;;13.40;;
12593;SDS011;6362;50.208;9.182;2023-03-07T07:40:38;21.02;;;12.52;;
12593;SDS011;6362;50.208;9.182;2023-03-07T07:43:04;22.02;;;12.75;;
12593;SDS011;6362;50.208;9.182;2023-03-07T07:45:30;20.70;;;13.18;;
12593;SDS011;6362;50.208;9.182;2023-03-07T07:47:55;20.10;;;12.20;;
12593;SDS011;6362;50.208;9.182;2023-03-07T07:50:21;23.63;;;12.80;;
12593;SDS011;6362;50.208;9.182;2023-03-07T07:52:47;19.70;;;11.10;;
12593;SDS011;6362;50.208;9.182;2023-03-07T07:55:13;20.00;;;11.57;;
12593;SDS011;6362;50.208;9.182;2023-03-07T07:57:40;21.08;;;11.90;;
12593;SDS011;6362;50.208;9.182;2023-03-07T08:00:06;22.17;;;11.45;;
12593;SDS011;6362;50.208;9.182;2023-03-07T08:02:34;20.48;;;11.02;;
12593;SDS011;6362;50.208;9.182;2023-03-07T08:05:00;23.20;;;12.55;;
12593;SDS011;6362;50.208;9.182;2023-03-07T08:07:26;17.88;;;10.85;;
12593;SDS011;6362;50.208;9.182;2023-03-07T08:09:51;17.08;;;9.93;;
12593;SDS011;6362;50.208;9.182;2023-03-07T08:12:17;18.23;;;10.60;;
12593;SDS011;6362;50.208;9.182;2023-03-07T08:14:42;20.27;;;10.82;;
12593;SDS011;6362;50.208;9.182;2023-03-07T08:17:08;20.48;;;11.20;;
12593;SDS011;6362;50.208;9.182;2023-03-07T08:19:33;20.73;;;11.85;;
12593;SDS011;6362;50.208;9.182;2023-03-07T08:21:59;17.27;;;10.57;;
12593;SDS011;6362;50.208;9.182;2023-03-07T08:24:25;18.30;;;10.90;;
12593;SDS011;6362;50.208;9.182;2023-03-07T08:26:51;18.95;;;10.43;;
12593;SDS011;6362;50.208;9.182;2023-03-07T08:29:16;19.58;;;11.23;;
12593;SDS011;6362;50.208;9.182;2023-03-07T08:31:42;17.83;;;10.27;;
12593;SDS011;6362;50.208;9.182;2023-03-07T08:34:09;21.52;;;10.85;;
12593;SDS011;6362;50.208;9.182;2023-03-07T08:36:35;16.17;;;9.77;;
12593;SDS011;6362;50.208;9.182;2023-03-07T08:39:01;15.88;;;9.20;;
12593;SDS011;6362;50.208;9.182;2023-03-07T08:41:27;17.75;;;10.55;;
12593;SDS011;6362;50.208;9.182;2023-03-07T08:43:52;18.65;;;10.45;;
12593;SDS011;6362;50.208;9.182;2023-03-07T08:46:18;18.23;;;10.45;;
12593;SDS011;6362;50.208;9.182;2023-03-07T08:48:43;21.75;;;10.88;;
12593;SDS011;6362;50.208;9.182;2023-03-07T08:51:11;19.70;;;10.43;;
12593;SDS011;6362;50.208;9.182;2023-03-07T08:53:39;16.60;;;9.27;;
12593;SDS011;6362;50.208;9.182;2023-03-07T08:59:09;18.73;;;9.95;;
12593;SDS011;6362;50.208;9.182;2023-03-07T09:01:35;17.20;;;9.68;;
12593;SDS011;6362;50.208;9.182;2023-03-07T09:04:00;15.65;;;9.52;;
12593;SDS011;6362;50.208;9.182;2023-03-07T09:06:26;18.65;;;10.18;;
12593;SDS011;6362;50.208;9.182;2023-03-07T09:08:51;20.67;;;9.98;;
12593;SDS011;6362;50.208;9.182;2023-03-07T09:11:17;17.25;;;9.90;;
12593;SDS011;6362;50.208;9.182;2023-03-07T09:13:43;15.60;;;9.18;;
12593;SDS011;6362;50.208;9.182;2023-03-07T09:16:09;18.40;;;9.70;;
12593;SDS011;6362;50.208;9.182;2023-03-07T09:18:35;16.27;;;9.98;;
12593;SDS011;6362;50.208;9.182;2023-03-07T09:21:01;14.02;;;9.02;;
12593;SDS011;6362;50.208;9.182;2023-03-07T09:23:28;17.73;;;10.02;;
12593;SDS011;6362;50.208;9.182;2023-03-07T09:25:53;16.25;;;8.77;;
12593;SDS011;6362;50.208;9.182;2023-03-07T09:28:19;19.77;;;10.50;;
12593;SDS011;6362;50.208;9.182;2023-03-07T09:30:44;13.43;;;8.27;;
12593;SDS011;6362;50.208;9.182;2023-03-07T09:33:09;15.15;;;9.70;;
12593;SDS011;6362;50.208;9.182;2023-03-07T09:35:36;13.35;;;8.55;;
12593;SDS011;6362;50.208;9.182;2023-03-07T09:38:03;14.10;;;8.50;;
12593;SDS011;6362;50.208;9.182;2023-03-07T09:40:28;13.50;;;8.15;;
12593;SDS011;6362;50.208;9.182;2023-03-07T09:50:51;17.02;;;8.55;;
12593;SDS011;6362;50.208;9.182;2023-03-07T09:53:23;13.10;;;8.30;;
12593;SDS011;6362;50.208;9.182;2023-03-07T09:56:46;12.90;;;6.80;;
12593;SDS011;6362;50.208;9.182;2023-03-07T09:59:25;13.00;;;7.90;;
12593;SDS011;6362;50.208;9.182;2023-03-07T10:02:19;13.48;;;7.32;;
12593;SDS011;6362;50.208;9.182;2023-03-07T10:07:48;13.50;;;8.52;;
12593;SDS011;6362;50.208;9.182;2023-03-07T10:10:24;14.18;;;7.90;;
12593;SDS011;6362;50.208;9.182;2023-03-07T10:26:34;15.65;;;8.02;;
12593;SDS011;6362;50.208;9.182;2023-03-07T10:29:18;14.43;;;6.47;;
12593;SDS011;6362;50.208;9.182;2023-03-07T10:31:49;14.18;;;7.38;;
12593;SDS011;6362;50.208;9.182;2023-03-07T10:34:22;12.45;;;7.00;;
12593;SDS011;6362;50.208;9.182;2023-03-07T10:36:50;10.27;;;6.72;;
12593;SDS011;6362;50.208;9.182;2023-03-07T10:42:09;10.73;;;6.18;;
12593;SDS011;6362;50.208;9.182;2023-03-07T10:44:36;13.65;;;6.88;;
12593;SDS011;6362;50.208;9.182;2023-03-07T10:47:03;11.18;;;6.90;;
12593;SDS011;6362;50.208;9.182;2023-03-07T10:49:30;9.20;;;6.30;;
12593;SDS011;6362;50.208;9.182;2023-03-07T10:54:45;9.02;;;5.70;;
12593;SDS011;6362;50.208;9.182;2023-03-07T10:59:39;14.68;;;6.63;;
12593;SDS011;6362;50.208;9.182;2023-03-07T11:04:59;12.35;;;5.97;;
12593;SDS011;6362;50.208;9.182;2023-03-07T11:07:29;9.05;;;6.47;;
12593;SDS011;6362;50.208;9.182;2023-03-07T11:09:58;10.45;;;5.80;;
12593;SDS011;6362;50.208;9.182;2023-03-07T11:12:26;8.70;;;5.90;;
12593;SDS011;6362;50.208;9.182;2023-03-07T11:17:44;10.25;;;5.50;;
12593;SDS011;6362;50.208;9.182;2023-03-07T11:20:24;10.30;;;6.00;;
12593;SDS011;6362;50.208;9.182;2023-03-07T11:25:37;11.60;;;6.40;;
12593;SDS011;6362;50.208;9.182;2023-03-07T11:28:02;8.45;;;5.22;;
12593;SDS011;6362;50.208;9.182;2023-03-07T11:30:49;10.40;;;5.43;;
12593;SDS011;6362;50.208;9.182;2023-03-07T11:36:07;9.60;;;5.97;;
12593;SDS011;6362;50.208;9.182;2023-03-07T11:41:26;11.30;;;6.25;;
12593;SDS011;6362;50.208;9.182;2023-03-07T11:46:33;7.60;;;5.28;;
12593;SDS011;6362;50.208;9.182;2023-03-07T11:52:35;12.35;;;6.07;;
12593;SDS011;6362;50.208;9.182;2023-03-07T11:58:03;8.90;;;5.85;;
12593;SDS011;6362;50.208;9.182;2023-03-07T12:01:04;8.13;;;5.45;;
12593;SDS011;6362;50.208;9.182;2023-03-07T12:06:15;11.93;;;5.28;;
12593;SDS011;6362;50.208;9.182;2023-03-07T12:24:51;10.13;;;5.85;;
12593;SDS011;6362;50.208;9.182;2023-03-07T12:27:39;8.55;;;5.65;;
12593;SDS011;6362;50.208;9.182;2023-03-07T12:30:19;9.90;;;5.70;;
12593;SDS011;6362;50.208;9.182;2023-03-07T12:32:51;8.32;;;4.93;;
12593;SDS011;6362;50.208;9.182;2023-03-07T12:38:25;11.35;;;5.22;;
12593;SDS011;6362;50.208;9.182;2023-03-07T12:44:11;7.68;;;4.95;;
12593;SDS011;6362;50.208;9.182;2023-03-07T12:46:51;9.40;;;5.32;;
12593;SDS011;6362;50.208;9.182;2023-03-07T12:51:53;10.63;;;5.20;;
12593;SDS011;6362;50.208;9.182;2023-03-07T12:54:28;8.13;;;4.90;;
12593;SDS011;6362;50.208;9.182;2023-03-07T13:00:00;12.65;;;5.43;;
12593;SDS011;6362;50.208;9.182;2023-03-07T13:02:29;8.95;;;5.38;;
12593;SDS011;6362;50.208;9.182;2023-03-07T13:05:01;8.05;;;5.00;;
12593;SDS011;6362;50.208;9.182;2023-03-07T13:07:30;6.88;;;4.90;;
12593;SDS011;6362;50.208;9.182;2023-03-07T13:09:58;8.38;;;5.25;;
12593;SDS011;6362;50.208;9.182;2023-03-07T13:12:34;12.10;;;5.32;;
12593;SDS011;6362;50.208;9.182;2023-03-07T13:15:08;10.88;;;5.65;;
12593;SDS011;6362;50.208;9.182;2023-03-07T13:18:24;10.93;;;6.10;;
12593;SDS011;6362;50.208;9.182;2023-03-07T13:21:05;8.65;;;5.35;;
12593;SDS011;6362;50.208;9.182;2023-03-07T13:23:32;10.40;;;6.50;;
12593;SDS011;6362;50.208;9.182;2023-03-07T13:25:58;8.13;;;5.18;;
12593;SDS011;6362;50.208;9.182;2023-03-07T13:28:30;10.38;;;5.03;;
12593;SDS011;6362;50.208;9.182;2023-03-07T13:31:38;11.60;;;5.35;;
12593;SDS011;6362;50.208;9.182;2023-03-07T13:33:44;9.25;;;4.97;;
12593;SDS011;6362;50.208;9.182;2023-03-07T13:36:31;9.00;;;5.28;;
12593;SDS011;6362;50.208;9.182;2023-03-07T13:39:12;8.93;;;4.85;;
12593;SDS011;6362;50.208;9.182;2023-03-07T13:42:01;12.25;;;4.95;;
12593;SDS011;6362;50.208;9.182;2023-03-07T13:44:28;9.10;;;6.47;;
12593;SDS011;6362;50.208;9.182;2023-03-07T13:47:04;8.02;;;5.13;;
12593;SDS011;6362;50.208;9.182;2023-03-07T13:49:49;9.18;;;5.47;;
12593;SDS011;6362;50.208;9.182;2023-03-07T13:54:55;8.77;;;5.20;;
12593;SDS011;6362;50.208;9.182;2023-03-07T13:57:22;9.98;;;5.32;;
12593;SDS011;6362;50.208;9.182;2023-03-07T13:59:49;8.38;;;5.18;;
12593;SDS011;6362;50.208;9.182;2023-03-07T14:02:15;9.18;;;5.75;;
12593;SDS011;6362;50.208;9.182;2023-03-07T14:04:46;9.70;;;5.55;;
12593;SDS011;6362;50.208;9.182;2023-03-07T14:07:25;8.38;;;5.30;;
12593;SDS011;6362;50.208;9.182;2023-03-07T14:09:56;8.82;;;5.60;;
12593;SDS011;6362;50.208;9.182;2023-03-07T14:12:36;9.68;;;5.78;;
12593;SDS011;6362;50.208;9.182;2023-03-07T14:25:42;10.43;;;5.57;;
12593;SDS011;6362;50.208;9.182;2023-03-07T14:28:19;9.73;;;5.55;;
12593;SDS011;6362;50.208;9.182;2023-03-07T14:33:29;8.88;;;5.20;;
12593;SDS011;6362;50.208;9.182;2023-03-07T14:35:56;8.93;;;5.78;;
12593;SDS011;6362;50.208;9.182;2023-03-07T14:38:22;8.43;;;5.63;;
12593;SDS011;6362;50.208;9.182;2023-03-07T14:41:07;9.05;;;5.68;;
12593;SDS011;6362;50.208;9.182;2023-03-07T14:52:10;8.82;;;5.75;;
12593;SDS011;6362;50.208;9.182;2023-03-07T14:54:37;9.73;;;6.70;;
12593;SDS011;6362;50.208;9.182;2023-03-07T14:57:03;8.88;;;5.53;;
12593;SDS011;6362;50.208;9.182;2023-03-07T14:59:28;12.32;;;5.60;;
12593;SDS011;6362;50.208;9.182;2023-03-07T15:01:53;9.82;;;6.80;;
12593;SDS011;6362;50.208;9.182;2023-03-07T15:04:38;10.43;;;5.75;;
12593;SDS011;6362;50.208;9.182;2023-03-07T15:07:04;10.48;;;5.80;;
12593;SDS011;6362;50.208;9.182;2023-03-07T15:09:35;8.93;;;6.18;;
12593;SDS011;6362;50.208;9.182;2023-03-07T15:12:11;12.13;;;6.50;;
12593;SDS011;6362;50.208;9.182;2023-03-07T15:14:58;11.18;;;6.82;;
12593;SDS011;6362;50.208;9.182;2023-03-07T15:17:28;11.48;;;6.10;;
12593;SDS011;6362;50.208;9.182;2023-03-07T15:20:06;10.32;;;6.55;;
12593;SDS011;6362;50.208;9.182;2023-03-07T15:22:39;11.88;;;6.35;;
12593;SDS011;6362;50.208;9.182;2023-03-07T15:25:15;15.43;;;6.93;;
12593;SDS011;6362;50.208;9.182;2023-03-07T15:27:46;10.13;;;6.20;;
12593;SDS011;6362;50.208;9.182;2023-03-07T15:30:25;10.45;;;6.28;;
12593;SDS011;6362;50.208;9.182;2023-03-07T15:38:37;7.80;;;5.32;;
12593;SDS011;6362;50.208;9.182;2023-03-07T15:46:46;9.57;;;5.57;;
12593;SDS011;6362;50.208;9.182;2023-03-07T15:52:01;10.57;;;6.13;;
12593;SDS011;6362;50.208;9.182;2023-03-07T15:54:37;10.80;;;6.43;;
12593;SDS011;6362;50.208;9.182;2023-03-07T15:57:15;12.32;;;6.35;;
12593;SDS011;6362;50.208;9.182;2023-03-07T15:59:45;8.35;;;4.93;;
12593;SDS011;6362;50.208;9.182;2023-03-07T16:07:45;7.38;;;4.53;;
12593;SDS011;6362;50.208;9.182;2023-03-07T16:10:11;8.82;;;4.72;;
12593;SDS011;6362;50.208;9.182;2023-03-07T16:12:37;8.98;;;5.80;;
12593;SDS011;6362;50.208;9.182;2023-03-07T16:15:12;10.02;;;5.03;;
12593;SDS011;6362;50.208;9.182;2023-03-07T16:17:38;6.47;;;4.40;;
12593;SDS011;6362;50.208;9.182;2023-03-07T16:20:11;13.82;;;8.52;;
12593;SDS011;6362;50.208;9.182;2023-03-07T16:22:39;10.15;;;5.90;;
12593;SDS011;6362;50.208;9.182;2023-03-07T16:25:04;9.30;;;5.30;;
12593;SDS011;6362;50.208;9.182;2023-03-07T16:27:31;13.70;;;7.05;;
12593;SDS011;6362;50.208;9.182;2023-03-07T16:29:57;7.80;;;5.03;;
12593;SDS011;6362;50.208;9.182;2023-03-07T16:32:23;9.70;;;5.07;;
12593;SDS011;6362;50.208;9.182;2023-03-07T16:34:49;10.70;;;5.32;;
12593;SDS011;6362;50.208;9.182;2023-03-07T16:37:15;8.45;;;5.20;;
12593;SDS011;6362;50.208;9.182;2023-03-07T16:39:41;10.15;;;4.97;;
12593;SDS011;6362;50.208;9.182;2023-03-07T16:42:08;8.48;;;4.90;;
12593;SDS011;6362;50.208;9.182;2023-03-07T16:44:42;11.30;;;7.00;;
12593;SDS011;6362;50.208;9.182;2023-03-07T16:47:15;9.70;;;5.13;;
12593;SDS011;6362;50.208;9.182;2023-03-07T16:49:41;9.60;;;6.18;;
12593;SDS011;6362;50.208;9.182;2023-03-07T16:52:10;8.68;;;5.18;;
12593;SDS011;6362;50.208;9.182;2023-03-07T16:54:37;21.30;;;12.82;;
12593;SDS011;6362;50.208;9.182;2023-03-07T16:57:03;6.55;;;4.38;;
12593;SDS011;6362;50.208;9.182;2023-03-07T16:59:31;8.63;;;5.35;;
12593;SDS011;6362;50.208;9.182;2023-03-07T17:01:59;11.10;;;5.68;;
12593;SDS011;6362;50.208;9.182;2023-03-07T17:04:25;10.75;;;8.63;;
12593;SDS011;6362;50.208;9.182;2023-03-07T17:06:50;8.20;;;5.63;;
12593;SDS011;6362;50.208;9.182;2023-03-07T17:09:16;9.20;;;5.53;;
12593;SDS011;6362;50.208;9.182;2023-03-07T17:11:45;12.50;;;5.57;;
12593;SDS011;6362;50.208;9.182;2023-03-07T17:14:14;11.68;;;6.10;;